CYIV

Island Lake Airport

Island Lake, Manitoba, Canada
METAR CYIV 181300Z 20007KT 12SM -SN DRSN OVC025 M06/M09 A2959 RMK SC8 SLP041
Observed Flight Rules
Dec-18 @ 13:00 UTC (56 minutes ago) Marginal Visual Flight Rules
Wind Visibility Clouds Conditions
200° at 7 knots 12 miles
  • Overcast at 2,500' AGL
  • Light Snow
  • Low drifting
  • Snow
Temperatures Readings
Current -6°C / 21°F
Dewpoint -9°C / 16°F
Humidity 80%
Altimeter 29.59" Hg
Pressure 1004.1 hPa
Elevation 237
METAR CYIV 181300Z 20007KT 12SM -SN DRSN OVC025 M06/M09 A2959 RMK SC8 SLP041
Observed Flight Rules
Dec-18 @ 13:00 UTC
(56 minutes ago)
MVFR
Wind Visibility
200° at 7 knots 12 miles
Clouds
  • Overcast at 2,500' AGL
Conditions
  • Light Snow
  • Low drifting
  • Snow
Temperature Dewpoint
-6°C / 21°F -9°C / 16°F
Humidity Altimeter Pressure
80% 29.59" Hg 1004.1 hPa